createdAt,value
2023-04-05T00:00:39.623Z,1.60
2023-04-05T00:03:10.153Z,1.23
2023-04-05T00:05:38.259Z,1.60
2023-04-05T00:08:13.319Z,1.40
2023-04-05T00:10:42.564Z,1.43
2023-04-05T00:13:10.584Z,1.60
2023-04-05T00:15:38.290Z,1.60
2023-04-05T00:18:06.474Z,1.67
2023-04-05T00:20:37.348Z,1.73
2023-04-05T00:23:06.480Z,1.73
2023-04-05T00:25:34.170Z,1.30
2023-04-05T00:28:03.766Z,1.30
2023-04-05T00:30:31.818Z,1.20
2023-04-05T00:32:59.462Z,1.90
2023-04-05T00:35:28.524Z,2.00
2023-04-05T00:37:56.957Z,1.40
2023-04-05T00:40:24.644Z,1.87
2023-04-05T00:42:52.327Z,1.37
2023-04-05T00:45:21.548Z,1.30
2023-04-05T00:47:49.429Z,1.47
2023-04-05T00:50:17.585Z,1.90
2023-04-05T00:52:46.186Z,1.50
2023-04-05T00:55:14.404Z,1.77
2023-04-05T00:57:42.478Z,1.90
2023-04-05T01:00:11.865Z,1.80
2023-04-05T01:02:46.943Z,1.60
2023-04-05T01:05:34.838Z,1.50
2023-04-05T01:08:13.150Z,1.93
2023-04-05T01:10:45.351Z,1.80
2023-04-05T01:13:13.008Z,1.60
2023-04-05T01:15:40.672Z,1.43
2023-04-05T01:18:11.227Z,1.93
2023-04-05T01:20:44.722Z,1.57
2023-04-05T01:23:39.064Z,1.67
2023-04-05T01:26:50.682Z,1.50
2023-04-05T01:30:03.934Z,1.60
2023-04-05T01:32:43.924Z,1.43
2023-04-05T01:35:19.381Z,1.77
2023-04-05T01:37:51.136Z,1.70
2023-04-05T01:40:19.844Z,1.70
2023-04-05T01:42:47.558Z,1.60
2023-04-05T01:45:16.700Z,1.60
2023-04-05T01:47:44.382Z,1.70
2023-04-05T01:50:12.250Z,1.90
2023-04-05T01:52:40.065Z,1.60
2023-04-05T01:55:08.584Z,1.70
2023-04-05T01:57:36.245Z,1.50
2023-04-05T02:00:04.450Z,1.87
2023-04-05T02:02:33.594Z,1.43
2023-04-05T02:05:01.419Z,1.90
2023-04-05T02:07:29.060Z,1.90
2023-04-05T02:09:56.728Z,2.10
2023-04-05T02:12:24.439Z,1.70
2023-04-05T02:14:52.606Z,2.00
2023-04-05T02:17:21.848Z,2.00
2023-04-05T02:19:52.885Z,1.83
2023-04-05T02:22:21.363Z,2.10
2023-04-05T02:24:49.121Z,1.70
2023-04-05T02:27:17.108Z,1.53
2023-04-05T02:29:45.000Z,1.90
2023-04-05T02:32:12.714Z,1.60
2023-04-05T02:34:41.785Z,1.60
2023-04-05T02:37:10.895Z,1.80
2023-04-05T02:39:38.580Z,1.60
2023-04-05T02:42:06.511Z,2.00
2023-04-05T02:44:34.412Z,1.60
2023-04-05T02:47:02.095Z,1.70
2023-04-05T02:49:29.812Z,1.83
2023-04-05T02:51:57.429Z,1.93
2023-04-05T02:54:26.493Z,1.97
2023-04-05T02:56:57.687Z,1.90
2023-04-05T02:59:25.803Z,1.53
2023-04-05T03:01:53.481Z,1.90
2023-04-05T03:04:21.128Z,2.07
2023-04-05T03:06:49.739Z,1.63
2023-04-05T03:09:17.377Z,2.00
2023-04-05T03:11:46.511Z,1.70
2023-04-05T03:14:14.170Z,1.63
2023-04-05T03:16:42.981Z,1.47
2023-04-05T03:19:10.767Z,1.67
2023-04-05T03:21:39.798Z,2.00
2023-04-05T03:24:08.429Z,1.67
2023-04-05T03:26:36.133Z,1.60
2023-04-05T03:29:05.449Z,1.70
2023-04-05T03:31:33.251Z,1.93
2023-04-05T03:34:01.101Z,1.60
2023-04-05T03:36:30.599Z,2.07
2023-04-05T03:38:58.311Z,1.80
2023-04-05T03:41:25.977Z,1.73
2023-04-05T03:43:53.611Z,1.80
2023-04-05T03:46:22.728Z,1.90
2023-04-05T03:48:50.574Z,2.40
2023-04-05T03:51:18.943Z,1.90
2023-04-05T03:53:46.859Z,2.17
2023-04-05T03:56:15.164Z,1.83
2023-04-05T03:58:42.917Z,2.10
2023-04-05T04:01:10.756Z,2.10
2023-04-05T04:03:40.211Z,2.00
2023-04-05T04:06:08.933Z,2.00
2023-04-05T04:08:36.848Z,2.20
2023-04-05T04:11:05.054Z,2.47
2023-04-05T04:13:32.937Z,2.17
2023-04-05T04:16:01.028Z,2.30
2023-04-05T04:18:28.898Z,1.80
2023-04-05T04:20:58.762Z,2.03
2023-04-05T04:23:27.322Z,2.07
2023-04-05T04:25:55.596Z,2.30
2023-04-05T04:28:24.993Z,2.17
2023-04-05T04:30:52.700Z,2.13
2023-04-05T04:33:20.882Z,2.30
2023-04-05T04:35:48.895Z,1.97
2023-04-05T04:38:20.715Z,1.70
2023-04-05T04:40:51.003Z,1.97
2023-04-05T04:43:19.088Z,2.37
2023-04-05T04:45:48.649Z,2.00
2023-04-05T04:48:17.321Z,1.97
2023-04-05T04:50:45.829Z,1.87
2023-04-05T04:53:14.191Z,2.00
2023-04-05T04:55:43.216Z,2.03
2023-04-05T04:58:12.353Z,2.33
2023-04-05T05:00:40.628Z,2.10
2023-04-05T05:03:11.317Z,2.13
2023-04-05T05:05:47.380Z,1.80
2023-04-05T05:08:15.471Z,2.50
2023-04-05T05:10:44.797Z,2.30
2023-04-05T05:13:13.339Z,2.53
2023-04-05T05:15:42.203Z,2.50
2023-04-05T05:18:10.602Z,1.90
2023-04-05T05:20:39.006Z,2.20
2023-04-05T05:23:07.313Z,2.07
2023-04-05T05:25:35.731Z,2.27
2023-04-05T05:28:05.873Z,2.50
2023-04-05T05:30:33.969Z,2.07
2023-04-05T05:33:03.106Z,2.63
2023-04-05T05:35:30.963Z,2.27
2023-04-05T05:37:58.942Z,2.30
2023-04-05T05:40:27.327Z,2.23
2023-04-05T05:42:55.563Z,2.07
2023-04-05T05:45:24.963Z,2.13
2023-04-05T05:47:53.029Z,2.53
2023-04-05T05:50:21.798Z,2.30
2023-04-05T05:52:49.909Z,2.50
2023-04-05T05:55:18.472Z,2.30
2023-04-05T05:57:46.516Z,2.60
2023-04-05T06:00:16.310Z,2.73
2023-04-05T06:02:45.752Z,2.73
2023-04-05T06:05:14.250Z,2.60
2023-04-05T06:07:42.092Z,3.00
2023-04-05T06:10:10.525Z,2.40
2023-04-05T06:12:38.271Z,2.00
2023-04-05T06:15:06.952Z,2.43
2023-04-05T06:17:39.735Z,2.27
2023-04-05T06:20:10.231Z,2.27
2023-04-05T06:22:38.043Z,2.30
2023-04-05T06:25:06.449Z,2.70
2023-04-05T06:27:34.113Z,2.70
2023-04-05T06:30:01.850Z,2.77
2023-04-05T06:32:29.547Z,2.13
2023-04-05T06:34:57.334Z,2.10
2023-04-05T06:37:26.430Z,2.37
2023-04-05T06:39:54.018Z,2.23
2023-04-05T06:42:21.678Z,2.27
2023-04-05T06:44:49.487Z,2.13
2023-04-05T06:47:17.171Z,2.00
2023-04-05T06:49:44.759Z,1.80
2023-04-05T06:52:12.435Z,2.47
2023-04-05T06:54:41.453Z,2.27
2023-04-05T06:57:09.072Z,2.80
2023-04-05T06:59:36.726Z,3.03
2023-04-05T07:02:04.381Z,2.63
2023-04-05T07:04:36.851Z,2.37
2023-04-05T07:07:05.351Z,2.70
2023-04-05T07:09:34.342Z,2.70
2023-04-05T07:12:04.845Z,2.60
2023-04-05T07:14:33.256Z,2.60
2023-04-05T07:17:01.355Z,2.53
2023-04-05T07:19:29.060Z,1.97
2023-04-05T07:21:58.023Z,1.90
2023-04-05T07:24:25.686Z,2.37
2023-04-05T07:26:53.397Z,1.90
2023-04-05T07:29:22.563Z,2.03
2023-04-05T07:31:50.322Z,1.77
2023-04-05T07:34:17.968Z,1.80
2023-04-05T07:36:46.686Z,2.03
2023-04-05T07:39:14.401Z,1.67
2023-04-05T07:41:43.128Z,1.90
2023-04-05T07:44:11.622Z,2.07
2023-04-05T07:46:46.816Z,2.63
2023-04-05T07:49:16.152Z,2.00
2023-04-05T07:51:44.105Z,2.13
2023-04-05T07:54:11.816Z,1.70
2023-04-05T07:56:39.464Z,1.60
2023-04-05T07:59:07.126Z,1.70
2023-04-05T08:01:35.172Z,1.45
2023-04-05T08:04:04.313Z,1.52
2023-04-05T08:06:32.139Z,1.55
2023-04-05T08:08:59.793Z,1.40
2023-04-05T08:11:27.509Z,1.20
2023-04-05T08:13:55.146Z,1.40
2023-04-05T08:16:22.847Z,1.40
2023-04-05T08:18:50.559Z,1.40
2023-04-05T08:21:19.596Z,1.80
2023-04-05T08:23:47.272Z,1.40
2023-04-05T08:26:14.899Z,1.63
2023-04-05T08:28:42.607Z,1.73
2023-04-05T08:31:12.301Z,1.65
2023-04-05T08:33:41.272Z,1.63
2023-04-05T08:36:10.784Z,1.40
2023-04-05T08:38:39.846Z,1.15
2023-04-05T08:41:17.971Z,1.33
2023-04-05T08:43:57.988Z,1.40
2023-04-05T08:46:26.488Z,1.60
2023-04-05T08:48:54.261Z,1.35
2023-04-05T08:51:22.649Z,1.10
2023-04-05T08:53:51.871Z,1.20
2023-04-05T08:56:22.105Z,1.20
2023-04-05T08:58:58.864Z,1.55
2023-04-05T09:01:30.385Z,1.30
2023-04-05T09:04:00.581Z,1.27
2023-04-05T09:06:28.779Z,1.27
2023-04-05T09:08:59.339Z,1.10
2023-04-05T09:11:27.074Z,1.45
2023-04-05T09:13:54.718Z,1.05
2023-04-05T09:16:22.927Z,1.13
2023-04-05T09:18:50.680Z,1.08
2023-04-05T09:21:19.405Z,1.00
2023-04-05T09:23:55.720Z,1.20
2023-04-05T09:26:26.272Z,1.10
2023-04-05T09:28:53.915Z,1.30
2023-04-05T09:31:31.837Z,1.10
2023-04-05T09:34:01.598Z,0.90
2023-04-05T09:36:29.379Z,1.08
2023-04-05T09:39:07.377Z,1.08
2023-04-05T09:41:37.562Z,1.08
2023-04-05T09:44:06.043Z,1.10
2023-04-05T09:46:37.304Z,1.45
2023-04-05T09:49:07.113Z,1.30
2023-04-05T09:51:36.280Z,1.50
2023-04-05T09:54:06.045Z,1.20
2023-04-05T09:56:36.972Z,1.30
2023-04-05T09:59:10.555Z,1.60
2023-04-05T10:01:41.167Z,1.90
2023-04-05T10:04:09.972Z,1.50
2023-04-05T10:06:39.379Z,1.20
2023-04-05T10:09:08.650Z,1.40
2023-04-05T10:11:39.035Z,1.30
2023-04-05T10:14:08.198Z,1.57
2023-04-05T10:16:44.286Z,1.30
2023-04-05T10:19:23.008Z,1.60
2023-04-05T10:21:53.580Z,1.83
2023-04-05T10:24:34.932Z,1.60
2023-04-05T10:27:07.516Z,1.43
2023-04-05T10:29:41.235Z,1.40
2023-04-05T10:32:15.263Z,1.42
2023-04-05T10:34:48.083Z,1.20
2023-04-05T10:37:28.288Z,1.50
2023-04-05T10:40:00.847Z,1.55
2023-04-05T10:42:39.402Z,1.10
2023-04-05T10:45:11.631Z,1.45
2023-04-05T10:47:45.967Z,1.55
2023-04-05T10:50:21.287Z,1.73
2023-04-05T10:52:49.441Z,1.48
2023-04-05T10:55:17.934Z,1.63
2023-04-05T10:57:48.649Z,1.80
2023-04-05T11:00:17.358Z,2.10
2023-04-05T11:02:46.265Z,1.50
2023-04-05T11:05:34.324Z,1.53
2023-04-05T11:08:05.501Z,1.60
2023-04-05T11:10:36.908Z,2.00
2023-04-05T11:13:08.755Z,2.10
2023-04-05T11:15:37.269Z,1.80
2023-04-05T11:18:07.941Z,1.60
2023-04-05T11:20:47.421Z,1.60
2023-04-05T11:23:19.554Z,1.63
2023-04-05T11:25:49.391Z,1.67
2023-04-05T11:28:31.659Z,2.50
2023-04-05T11:31:12.494Z,1.57
2023-04-05T11:33:57.244Z,1.47
2023-04-05T11:36:41.539Z,1.33
2023-04-05T11:39:32.883Z,2.30
2023-04-05T11:42:02.732Z,1.70
2023-04-05T11:44:41.861Z,1.30
2023-04-05T11:47:10.768Z,1.60
2023-04-05T11:49:39.238Z,1.50
2023-04-05T11:52:15.635Z,1.30
2023-04-05T11:54:47.140Z,1.47
2023-04-05T11:57:17.313Z,2.03
2023-04-05T11:59:46.573Z,1.40
2023-04-05T12:02:14.347Z,1.30
2023-04-05T12:04:42.051Z,1.60
2023-04-05T12:07:14.858Z,1.43
2023-04-05T12:10:03.442Z,1.60
2023-04-05T12:12:35.320Z,1.47
2023-04-05T12:15:05.485Z,2.10
2023-04-05T12:17:43.912Z,1.77
2023-04-05T12:20:13.364Z,1.50
2023-04-05T12:22:43.188Z,1.70
2023-04-05T12:25:11.911Z,2.00
2023-04-05T12:27:40.352Z,2.10
2023-04-05T12:30:14.237Z,2.40
2023-04-05T12:32:43.254Z,2.03
2023-04-05T12:35:15.200Z,3.13
2023-04-05T12:37:43.335Z,2.00
2023-04-05T12:40:12.452Z,1.30
2023-04-05T12:42:41.655Z,1.80
2023-04-05T12:45:14.199Z,1.40
2023-04-05T12:47:53.894Z,1.57
2023-04-05T12:50:28.720Z,2.13
2023-04-05T12:52:58.193Z,1.63
2023-04-05T12:55:26.625Z,1.70
2023-04-05T12:57:55.518Z,1.60
2023-04-05T13:00:28.017Z,2.07
2023-04-05T13:02:56.897Z,2.27
2023-04-05T13:05:26.363Z,1.70
2023-04-05T13:07:54.417Z,2.40
2023-04-05T13:10:24.200Z,1.90
2023-04-05T13:12:51.984Z,1.83
2023-04-05T13:15:20.554Z,1.93
2023-04-05T13:17:52.129Z,1.53
2023-04-05T13:20:20.271Z,1.47
2023-04-05T13:22:48.795Z,1.90
2023-04-05T13:25:16.730Z,1.60
2023-04-05T13:27:45.129Z,2.00
2023-04-05T13:30:13.307Z,2.20
2023-04-05T13:32:41.489Z,2.77
2023-04-05T13:35:11.262Z,1.83
2023-04-05T13:37:39.402Z,1.67
2023-04-05T13:40:08.200Z,1.97
2023-04-05T13:42:35.977Z,1.40
2023-04-05T13:45:03.795Z,2.20
2023-04-05T13:47:31.540Z,2.37
2023-04-05T13:49:59.362Z,2.30
2023-04-05T13:52:28.468Z,2.37
2023-04-05T13:55:02.177Z,1.90
2023-04-05T13:57:32.231Z,2.07
2023-04-05T13:59:59.999Z,2.00
2023-04-05T14:02:28.349Z,2.10
2023-04-05T14:04:56.308Z,2.17
2023-04-05T14:07:24.793Z,2.30
2023-04-05T14:09:53.904Z,1.80
2023-04-05T14:12:21.734Z,1.83
2023-04-05T14:14:49.502Z,1.87
2023-04-05T14:17:17.301Z,2.00
2023-04-05T14:19:45.070Z,1.60
2023-04-05T14:22:12.937Z,2.00
2023-04-05T14:24:40.732Z,1.80
2023-04-05T14:27:09.964Z,1.80
2023-04-05T14:29:37.807Z,1.63
2023-04-05T14:32:06.324Z,1.70
2023-04-05T14:34:34.349Z,1.90
2023-04-05T14:37:04.215Z,1.63
2023-04-05T14:39:32.035Z,2.00
2023-04-05T14:41:59.856Z,1.60
2023-04-05T14:44:29.038Z,1.90
2023-04-05T14:46:57.055Z,1.80
2023-04-05T14:49:24.837Z,1.87
2023-04-05T14:51:52.754Z,1.77
2023-04-05T14:54:20.749Z,2.00
2023-04-05T14:56:48.687Z,1.63
2023-04-05T14:59:16.620Z,2.33
2023-04-05T15:01:47.337Z,2.50
2023-04-05T15:04:15.462Z,1.93
2023-04-05T15:06:43.553Z,1.60
2023-04-05T15:09:11.477Z,1.50
2023-04-05T15:11:40.262Z,1.80
2023-04-05T15:14:11.542Z,1.70
2023-04-05T15:16:47.391Z,2.43
2023-04-05T15:19:15.265Z,2.07
2023-04-05T15:21:44.033Z,1.90
2023-04-05T15:24:12.271Z,2.43
2023-04-05T15:26:40.938Z,2.13
2023-04-05T15:29:09.186Z,2.23
2023-04-05T15:31:37.145Z,2.10
2023-04-05T15:34:08.371Z,2.30
2023-04-05T15:36:36.341Z,2.20
2023-04-05T15:39:05.201Z,1.80
2023-04-05T15:41:34.488Z,2.50
2023-04-05T15:44:03.580Z,1.90
2023-04-05T15:46:31.867Z,1.93
2023-04-05T15:48:59.989Z,1.77
2023-04-05T15:51:29.474Z,1.50
2023-04-05T15:53:57.338Z,2.00
2023-04-05T15:56:25.145Z,2.27
2023-04-05T15:58:52.957Z,2.00
2023-04-05T16:01:20.906Z,4.90
2023-04-05T16:03:48.914Z,1.73
2023-04-05T16:06:16.831Z,1.97
2023-04-05T16:08:46.099Z,1.60
2023-04-05T16:11:13.969Z,2.20
2023-04-05T16:13:41.789Z,2.23
2023-04-05T16:16:09.665Z,1.77
2023-04-05T16:18:37.456Z,1.70
2023-04-05T16:21:05.940Z,2.00
2023-04-05T16:23:33.885Z,1.80
2023-04-05T16:26:03.721Z,2.03
2023-04-05T16:28:31.827Z,1.90
2023-04-05T16:31:00.042Z,1.50
2023-04-05T16:33:28.016Z,1.90
2023-04-05T16:35:56.132Z,2.00
2023-04-05T16:38:24.078Z,1.53
2023-04-05T16:40:51.948Z,1.97
2023-04-05T16:43:21.266Z,1.93
2023-04-05T16:45:49.123Z,2.00
2023-04-05T16:48:17.547Z,1.70
2023-04-05T16:50:47.826Z,2.10
2023-04-05T16:53:16.048Z,1.70
2023-04-05T16:55:43.789Z,1.93
2023-04-05T16:58:11.694Z,1.83
2023-04-05T17:00:40.841Z,1.50
2023-04-05T17:03:08.763Z,3.90
2023-04-05T17:05:38.261Z,2.03
2023-04-05T17:08:06.328Z,2.30
2023-04-05T17:10:35.623Z,2.00
2023-04-05T17:13:03.433Z,1.60
2023-04-05T17:15:31.470Z,2.30
2023-04-05T17:18:00.881Z,1.90
2023-04-05T17:20:28.746Z,2.03
2023-04-05T17:22:58.306Z,2.20
2023-04-05T17:25:26.263Z,1.93
2023-04-05T17:27:54.078Z,1.50
2023-04-05T17:30:22.140Z,1.90
2023-04-05T17:32:49.971Z,1.90
2023-04-05T17:35:19.398Z,4.80
2023-04-05T17:37:47.731Z,8.37
2023-04-05T17:40:18.489Z,2.50
2023-04-05T17:42:46.517Z,2.33
2023-04-05T17:45:14.353Z,2.40
2023-04-05T17:47:42.358Z,2.20
2023-04-05T17:50:11.122Z,1.97
2023-04-05T17:52:40.479Z,2.00
2023-04-05T17:55:08.865Z,2.30
2023-04-05T17:57:36.791Z,2.10
2023-04-05T18:00:05.131Z,2.90
2023-04-05T18:02:36.989Z,3.27
2023-04-05T18:05:05.116Z,2.70
2023-04-05T18:07:36.317Z,1.97
2023-04-05T18:10:06.519Z,2.97
2023-04-05T18:12:34.310Z,2.90
2023-04-05T18:15:02.117Z,2.67
2023-04-05T18:17:29.983Z,2.63
2023-04-05T18:19:57.853Z,3.13
2023-04-05T18:22:26.153Z,3.00
2023-04-05T18:24:53.995Z,2.60
2023-04-05T18:27:23.189Z,2.50
2023-04-05T18:29:51.148Z,2.60
2023-04-05T18:32:19.064Z,2.90
2023-04-05T18:34:46.887Z,7.77
2023-04-05T18:37:14.639Z,8.40
2023-04-05T18:39:42.403Z,10.47
2023-04-05T18:42:10.239Z,3.90
2023-04-05T18:44:39.508Z,3.00
2023-04-05T18:47:07.419Z,3.00
2023-04-05T18:49:37.084Z,2.50
2023-04-05T18:52:04.877Z,2.27
2023-04-05T18:54:32.727Z,2.27
2023-04-05T18:57:00.626Z,2.70
2023-04-05T18:59:29.326Z,2.93
2023-04-05T19:01:58.681Z,2.60
2023-04-05T19:04:26.571Z,2.50
2023-04-05T19:06:54.408Z,3.10
2023-04-05T19:09:22.968Z,3.20
2023-04-05T19:11:50.932Z,2.60
2023-04-05T19:14:18.754Z,2.77
2023-04-05T19:16:46.926Z,3.00
2023-04-05T19:19:16.937Z,3.03
2023-04-05T19:21:45.157Z,2.93
2023-04-05T19:24:14.867Z,2.97
2023-04-05T19:26:43.142Z,3.23
2023-04-05T19:29:11.234Z,2.53
2023-04-05T19:31:39.994Z,3.17
2023-04-05T19:34:08.685Z,2.90
2023-04-05T19:36:39.091Z,2.50
2023-04-05T19:39:08.465Z,3.00
2023-04-05T19:41:37.588Z,3.50
2023-04-05T19:44:12.553Z,2.93
2023-04-05T19:46:41.523Z,2.47
2023-04-05T19:49:11.148Z,3.67
2023-04-05T19:51:40.411Z,3.03
2023-04-05T19:54:12.424Z,3.50
2023-04-05T19:56:41.810Z,3.53
2023-04-05T19:59:30.109Z,3.60
2023-04-05T20:01:59.965Z,4.77
2023-04-05T20:04:28.592Z,4.03
2023-04-05T20:06:57.858Z,4.50
2023-04-05T20:09:28.882Z,3.90
2023-04-05T20:11:59.072Z,3.83
2023-04-05T20:14:30.451Z,3.90
2023-04-05T20:16:59.034Z,3.70
2023-04-05T20:19:30.719Z,3.07
2023-04-05T20:22:02.303Z,3.87
2023-04-05T20:24:30.479Z,2.97
2023-04-05T20:26:58.555Z,3.10
2023-04-05T20:29:32.103Z,2.53
2023-04-05T20:32:00.319Z,3.27
2023-04-05T20:34:30.131Z,3.10
2023-04-05T20:37:02.128Z,3.50
2023-04-05T20:39:31.072Z,2.83
2023-04-05T20:41:58.956Z,3.23
2023-04-05T20:44:26.956Z,2.87
2023-04-05T20:46:57.132Z,2.67
2023-04-05T20:49:25.689Z,3.10
2023-04-05T20:51:54.811Z,3.10
2023-04-05T20:54:24.969Z,3.40
2023-04-05T20:56:53.205Z,3.50
2023-04-05T20:59:21.347Z,2.93
2023-04-05T21:01:49.482Z,3.60
2023-04-05T21:04:17.485Z,3.83
2023-04-05T21:06:45.761Z,3.77
2023-04-05T21:09:13.660Z,4.10
2023-04-05T21:11:42.865Z,4.13
2023-04-05T21:14:11.113Z,3.93
2023-04-05T21:16:39.102Z,3.77
2023-04-05T21:19:07.209Z,3.43
2023-04-05T21:21:35.275Z,3.83
2023-04-05T21:24:03.056Z,3.17
2023-04-05T21:26:30.825Z,3.23
2023-04-05T21:28:59.991Z,3.83
2023-04-05T21:31:27.833Z,3.83
2023-04-05T21:33:55.610Z,4.03
2023-04-05T21:36:23.439Z,3.87
2023-04-05T21:38:51.337Z,4.03
2023-04-05T21:41:19.177Z,3.67
2023-04-05T21:43:47.038Z,3.93
2023-04-05T21:46:16.291Z,3.80
2023-04-05T21:48:44.490Z,3.90
2023-04-05T21:51:12.430Z,4.30
2023-04-05T21:53:40.218Z,3.50
2023-04-05T21:56:08.064Z,3.67
2023-04-05T21:58:36.002Z,3.03
2023-04-05T22:01:04.079Z,3.60
2023-04-05T22:03:33.488Z,3.50
2023-04-05T22:06:02.183Z,2.70
2023-04-05T22:08:30.244Z,2.93
2023-04-05T22:10:58.167Z,3.23
2023-04-05T22:13:26.563Z,3.33
2023-04-05T22:15:54.396Z,2.87
2023-04-05T22:18:23.832Z,3.00
2023-04-05T22:20:53.345Z,3.20
2023-04-05T22:23:21.363Z,3.03
2023-04-05T22:25:49.190Z,2.93
2023-04-05T22:28:17.106Z,3.00
2023-04-05T22:30:44.977Z,3.87
2023-04-05T22:33:14.199Z,3.17
2023-04-05T22:35:42.665Z,2.67
2023-04-05T22:38:12.177Z,3.30
2023-04-05T22:40:40.325Z,2.93
2023-04-05T22:43:08.290Z,3.73
2023-04-05T22:45:36.213Z,3.50
2023-04-05T22:48:04.346Z,3.50
2023-04-05T22:50:32.551Z,3.10
2023-04-05T22:53:00.732Z,2.90
2023-04-05T22:55:30.850Z,3.07
2023-04-05T22:57:58.681Z,3.07
2023-04-05T23:00:26.671Z,3.27
2023-04-05T23:02:54.547Z,2.73
2023-04-05T23:05:22.425Z,2.80
2023-04-05T23:07:50.432Z,2.87
2023-04-05T23:10:18.581Z,3.13
2023-04-05T23:12:53.675Z,2.97
2023-04-05T23:15:21.663Z,3.23
2023-04-05T23:17:50.353Z,3.00
2023-04-05T23:20:18.227Z,3.13
2023-04-05T23:22:46.114Z,3.20
2023-04-05T23:25:14.377Z,2.90
2023-04-05T23:27:42.193Z,3.60
2023-04-05T23:30:12.451Z,3.17
2023-04-05T23:32:40.371Z,3.20
2023-04-05T23:35:08.705Z,3.13
2023-04-05T23:37:36.551Z,3.00
2023-04-05T23:40:04.954Z,3.20
2023-04-05T23:42:32.738Z,3.37
2023-04-05T23:45:02.876Z,3.43
2023-04-05T23:47:32.356Z,3.67
2023-04-05T23:50:00.253Z,3.17
2023-04-05T23:52:28.087Z,3.50
2023-04-05T23:54:57.064Z,3.80
2023-04-05T23:57:24.931Z,3.57
2023-04-05T23:59:52.786Z,3.67
